sensor_id;sensor_type;location;lat;lon;timestamp;P1;durP1;ratioP1;P2;durP2;ratioP2
19971;SDS011;10147;16.402;102.848;2023-06-01T00:01:09;25.70;;;22.92;;
19971;SDS011;10147;16.402;102.848;2023-06-01T00:03:41;28.05;;;21.98;;
19971;SDS011;10147;16.402;102.848;2023-06-01T00:06:14;29.17;;;22.48;;
19971;SDS011;10147;16.402;102.848;2023-06-01T00:08:44;32.03;;;23.75;;
19971;SDS011;10147;16.402;102.848;2023-06-01T00:11:14;27.70;;;21.35;;
19971;SDS011;10147;16.402;102.848;2023-06-01T00:13:44;29.25;;;23.33;;
19971;SDS011;10147;16.402;102.848;2023-06-01T00:16:14;24.95;;;22.08;;
19971;SDS011;10147;16.402;102.848;2023-06-01T00:18:44;24.45;;;20.67;;
19971;SDS011;10147;16.402;102.848;2023-06-01T00:21:14;26.70;;;21.48;;
19971;SDS011;10147;16.402;102.848;2023-06-01T00:23:44;27.58;;;22.77;;
19971;SDS011;10147;16.402;102.848;2023-06-01T00:26:15;27.02;;;21.52;;
19971;SDS011;10147;16.402;102.848;2023-06-01T00:28:49;46.40;;;38.17;;
19971;SDS011;10147;16.402;102.848;2023-06-01T00:31:19;31.48;;;25.13;;
19971;SDS011;10147;16.402;102.848;2023-06-01T00:33:49;27.15;;;21.27;;
19971;SDS011;10147;16.402;102.848;2023-06-01T00:36:19;27.20;;;20.63;;
19971;SDS011;10147;16.402;102.848;2023-06-01T00:38:49;23.30;;;17.50;;
19971;SDS011;10147;16.402;102.848;2023-06-01T00:41:19;24.50;;;17.92;;
19971;SDS011;10147;16.402;102.848;2023-06-01T00:43:49;22.17;;;16.98;;
19971;SDS011;10147;16.402;102.848;2023-06-01T00:46:19;22.92;;;17.60;;
19971;SDS011;10147;16.402;102.848;2023-06-01T00:48:49;22.63;;;18.50;;
19971;SDS011;10147;16.402;102.848;2023-06-01T00:51:20;25.75;;;18.20;;
19971;SDS011;10147;16.402;102.848;2023-06-01T00:53:50;22.48;;;17.90;;
19971;SDS011;10147;16.402;102.848;2023-06-01T00:56:20;25.33;;;17.38;;
19971;SDS011;10147;16.402;102.848;2023-06-01T00:58:51;21.33;;;16.40;;
19971;SDS011;10147;16.402;102.848;2023-06-01T01:01:21;22.50;;;17.48;;
19971;SDS011;10147;16.402;102.848;2023-06-01T01:03:53;18.20;;;15.90;;
19971;SDS011;10147;16.402;102.848;2023-06-01T01:12:39;23.27;;;16.65;;
19971;SDS011;10147;16.402;102.848;2023-06-01T01:15:23;19.98;;;17.55;;
19971;SDS011;10147;16.402;102.848;2023-06-01T01:18:06;26.25;;;16.75;;
19971;SDS011;10147;16.402;102.848;2023-06-01T01:20:44;21.15;;;17.45;;
19971;SDS011;10147;16.402;102.848;2023-06-01T01:23:28;18.15;;;15.90;;
19971;SDS011;10147;16.402;102.848;2023-06-01T01:29:37;24.92;;;16.10;;
19971;SDS011;10147;16.402;102.848;2023-06-01T01:32:11;18.10;;;15.35;;
19971;SDS011;10147;16.402;102.848;2023-06-01T01:34:43;19.85;;;15.63;;
19971;SDS011;10147;16.402;102.848;2023-06-01T01:37:17;19.08;;;14.93;;
19971;SDS011;10147;16.402;102.848;2023-06-01T01:39:50;21.77;;;14.95;;
19971;SDS011;10147;16.402;102.848;2023-06-01T01:42:20;19.08;;;15.07;;
19971;SDS011;10147;16.402;102.848;2023-06-01T01:44:50;18.45;;;14.18;;
19971;SDS011;10147;16.402;102.848;2023-06-01T01:47:25;18.60;;;14.65;;
19971;SDS011;10147;16.402;102.848;2023-06-01T01:50:04;18.27;;;13.93;;
19971;SDS011;10147;16.402;102.848;2023-06-01T01:52:39;20.88;;;14.32;;
19971;SDS011;10147;16.402;102.848;2023-06-01T01:55:11;17.23;;;14.65;;
19971;SDS011;10147;16.402;102.848;2023-06-01T01:57:41;16.92;;;14.57;;
19971;SDS011;10147;16.402;102.848;2023-06-01T02:00:13;16.45;;;14.63;;
19971;SDS011;10147;16.402;102.848;2023-06-01T02:02:47;17.88;;;13.90;;
19971;SDS011;10147;16.402;102.848;2023-06-01T02:05:17;15.70;;;13.82;;
19971;SDS011;10147;16.402;102.848;2023-06-01T02:07:48;17.02;;;13.98;;
19971;SDS011;10147;16.402;102.848;2023-06-01T02:10:18;17.35;;;12.93;;
19971;SDS011;10147;16.402;102.848;2023-06-01T02:12:49;15.63;;;13.30;;
19971;SDS011;10147;16.402;102.848;2023-06-01T02:15:18;16.15;;;12.65;;
19971;SDS011;10147;16.402;102.848;2023-06-01T02:17:48;24.33;;;21.92;;
19971;SDS011;10147;16.402;102.848;2023-06-01T02:20:20;16.63;;;13.57;;
19971;SDS011;10147;16.402;102.848;2023-06-01T02:22:50;14.32;;;12.68;;
19971;SDS011;10147;16.402;102.848;2023-06-01T02:25:20;15.07;;;13.52;;
19971;SDS011;10147;16.402;102.848;2023-06-01T02:27:50;18.58;;;14.50;;
19971;SDS011;10147;16.402;102.848;2023-06-01T02:30:20;22.33;;;19.05;;
19971;SDS011;10147;16.402;102.848;2023-06-01T02:32:52;15.45;;;12.68;;
19971;SDS011;10147;16.402;102.848;2023-06-01T02:35:23;12.68;;;11.38;;
19971;SDS011;10147;16.402;102.848;2023-06-01T02:37:54;13.60;;;12.00;;
19971;SDS011;10147;16.402;102.848;2023-06-01T02:40:25;17.58;;;12.88;;
19971;SDS011;10147;16.402;102.848;2023-06-01T02:42:55;16.83;;;12.57;;
19971;SDS011;10147;16.402;102.848;2023-06-01T02:45:26;15.35;;;13.77;;
19971;SDS011;10147;16.402;102.848;2023-06-01T02:47:56;15.20;;;13.43;;
19971;SDS011;10147;16.402;102.848;2023-06-01T02:50:26;14.07;;;12.57;;
19971;SDS011;10147;16.402;102.848;2023-06-01T02:52:56;13.98;;;11.95;;
19971;SDS011;10147;16.402;102.848;2023-06-01T02:55:26;13.40;;;12.00;;
19971;SDS011;10147;16.402;102.848;2023-06-01T02:58:15;12.85;;;11.52;;
19971;SDS011;10147;16.402;102.848;2023-06-01T03:01:05;13.35;;;12.05;;
19971;SDS011;10147;16.402;102.848;2023-06-01T03:03:41;14.60;;;12.48;;
19971;SDS011;10147;16.402;102.848;2023-06-01T03:06:13;15.45;;;12.88;;
19971;SDS011;10147;16.402;102.848;2023-06-01T03:09:06;14.02;;;11.85;;
19971;SDS011;10147;16.402;102.848;2023-06-01T03:12:01;13.10;;;11.57;;
19971;SDS011;10147;16.402;102.848;2023-06-01T03:14:32;26.83;;;12.00;;
19971;SDS011;10147;16.402;102.848;2023-06-01T03:17:02;13.27;;;11.50;;
19971;SDS011;10147;16.402;102.848;2023-06-01T03:19:33;13.00;;;10.75;;
19971;SDS011;10147;16.402;102.848;2023-06-01T03:22:12;13.80;;;11.00;;
19971;SDS011;10147;16.402;102.848;2023-06-01T03:24:42;14.43;;;11.35;;
19971;SDS011;10147;16.402;102.848;2023-06-01T03:27:12;13.20;;;11.30;;
19971;SDS011;10147;16.402;102.848;2023-06-01T03:29:42;12.85;;;11.55;;
19971;SDS011;10147;16.402;102.848;2023-06-01T03:32:13;18.70;;;12.55;;
19971;SDS011;10147;16.402;102.848;2023-06-01T03:34:43;13.73;;;11.63;;
19971;SDS011;10147;16.402;102.848;2023-06-01T03:37:13;17.50;;;12.95;;
19971;SDS011;10147;16.402;102.848;2023-06-01T03:39:43;17.70;;;14.40;;
19971;SDS011;10147;16.402;102.848;2023-06-01T03:42:13;17.00;;;13.43;;
19971;SDS011;10147;16.402;102.848;2023-06-01T03:44:43;18.27;;;13.90;;
19971;SDS011;10147;16.402;102.848;2023-06-01T03:47:13;14.43;;;11.60;;
19971;SDS011;10147;16.402;102.848;2023-06-01T03:49:43;16.17;;;12.95;;
19971;SDS011;10147;16.402;102.848;2023-06-01T03:52:13;15.15;;;12.93;;
19971;SDS011;10147;16.402;102.848;2023-06-01T03:54:46;17.67;;;13.25;;
19971;SDS011;10147;16.402;102.848;2023-06-01T03:57:35;17.27;;;12.85;;
19971;SDS011;10147;16.402;102.848;2023-06-01T04:00:06;17.33;;;13.80;;
19971;SDS011;10147;16.402;102.848;2023-06-01T04:03:01;15.68;;;14.05;;
19971;SDS011;10147;16.402;102.848;2023-06-01T04:05:35;16.38;;;14.77;;
19971;SDS011;10147;16.402;102.848;2023-06-01T04:08:05;18.02;;;14.80;;
19971;SDS011;10147;16.402;102.848;2023-06-01T04:10:38;18.20;;;14.55;;
19971;SDS011;10147;16.402;102.848;2023-06-01T04:13:09;20.20;;;14.75;;
19971;SDS011;10147;16.402;102.848;2023-06-01T04:15:39;16.88;;;14.57;;
19971;SDS011;10147;16.402;102.848;2023-06-01T04:18:09;16.25;;;14.25;;
19971;SDS011;10147;16.402;102.848;2023-06-01T04:20:56;16.45;;;14.75;;
19971;SDS011;10147;16.402;102.848;2023-06-01T04:23:26;15.63;;;14.13;;
19971;SDS011;10147;16.402;102.848;2023-06-01T04:25:56;14.85;;;13.40;;
19971;SDS011;10147;16.402;102.848;2023-06-01T04:28:28;15.43;;;13.88;;
19971;SDS011;10147;16.402;102.848;2023-06-01T04:30:59;22.33;;;20.27;;
19971;SDS011;10147;16.402;102.848;2023-06-01T04:33:31;15.48;;;13.93;;
19971;SDS011;10147;16.402;102.848;2023-06-01T04:36:01;22.88;;;13.32;;
19971;SDS011;10147;16.402;102.848;2023-06-01T04:38:32;16.02;;;13.57;;
19971;SDS011;10147;16.402;102.848;2023-06-01T04:41:03;18.15;;;13.30;;
19971;SDS011;10147;16.402;102.848;2023-06-01T04:43:33;17.27;;;13.18;;
19971;SDS011;10147;16.402;102.848;2023-06-01T04:46:04;16.60;;;13.25;;
19971;SDS011;10147;16.402;102.848;2023-06-01T04:48:34;16.92;;;13.85;;
19971;SDS011;10147;16.402;102.848;2023-06-01T04:51:06;14.65;;;13.23;;
19971;SDS011;10147;16.402;102.848;2023-06-01T04:53:37;14.77;;;12.45;;
19971;SDS011;10147;16.402;102.848;2023-06-01T04:56:07;15.07;;;12.23;;
19971;SDS011;10147;16.402;102.848;2023-06-01T04:58:37;15.40;;;13.65;;
19971;SDS011;10147;16.402;102.848;2023-06-01T05:01:06;13.95;;;10.98;;
19971;SDS011;10147;16.402;102.848;2023-06-01T05:03:36;16.25;;;12.30;;
19971;SDS011;10147;16.402;102.848;2023-06-01T05:06:06;13.95;;;12.52;;
19971;SDS011;10147;16.402;102.848;2023-06-01T05:08:37;14.00;;;11.68;;
19971;SDS011;10147;16.402;102.848;2023-06-01T05:11:08;29.08;;;26.48;;
19971;SDS011;10147;16.402;102.848;2023-06-01T05:13:39;27.77;;;25.45;;
19971;SDS011;10147;16.402;102.848;2023-06-01T05:16:10;14.07;;;12.30;;
19971;SDS011;10147;16.402;102.848;2023-06-01T05:18:40;14.00;;;12.68;;
19971;SDS011;10147;16.402;102.848;2023-06-01T05:21:10;13.68;;;12.32;;
19971;SDS011;10147;16.402;102.848;2023-06-01T05:23:40;15.75;;;12.30;;
19971;SDS011;10147;16.402;102.848;2023-06-01T05:26:11;15.82;;;13.40;;
19971;SDS011;10147;16.402;102.848;2023-06-01T05:28:41;19.45;;;12.30;;
19971;SDS011;10147;16.402;102.848;2023-06-01T05:31:12;13.13;;;11.77;;
19971;SDS011;10147;16.402;102.848;2023-06-01T05:33:46;14.32;;;12.70;;
19971;SDS011;10147;16.402;102.848;2023-06-01T05:36:16;15.63;;;13.15;;
19971;SDS011;10147;16.402;102.848;2023-06-01T05:38:46;13.65;;;12.23;;
19971;SDS011;10147;16.402;102.848;2023-06-01T05:41:16;13.93;;;12.70;;
19971;SDS011;10147;16.402;102.848;2023-06-01T05:43:47;15.40;;;12.75;;
19971;SDS011;10147;16.402;102.848;2023-06-01T05:46:17;13.48;;;11.98;;
19971;SDS011;10147;16.402;102.848;2023-06-01T05:48:47;14.05;;;12.23;;
19971;SDS011;10147;16.402;102.848;2023-06-01T05:51:17;13.27;;;11.88;;
19971;SDS011;10147;16.402;102.848;2023-06-01T05:53:47;14.20;;;12.32;;
19971;SDS011;10147;16.402;102.848;2023-06-01T05:56:17;17.13;;;14.63;;
19971;SDS011;10147;16.402;102.848;2023-06-01T05:58:47;16.15;;;14.85;;
19971;SDS011;10147;16.402;102.848;2023-06-01T06:01:21;13.55;;;11.55;;
19971;SDS011;10147;16.402;102.848;2023-06-01T06:03:52;15.18;;;11.65;;
19971;SDS011;10147;16.402;102.848;2023-06-01T06:06:22;13.10;;;11.75;;
19971;SDS011;10147;16.402;102.848;2023-06-01T06:08:54;12.23;;;11.05;;
19971;SDS011;10147;16.402;102.848;2023-06-01T06:11:24;13.18;;;11.30;;
19971;SDS011;10147;16.402;102.848;2023-06-01T06:13:54;13.57;;;11.70;;
19971;SDS011;10147;16.402;102.848;2023-06-01T06:16:24;13.43;;;12.02;;
19971;SDS011;10147;16.402;102.848;2023-06-01T06:18:54;14.27;;;12.88;;
19971;SDS011;10147;16.402;102.848;2023-06-01T06:21:24;14.75;;;13.23;;
19971;SDS011;10147;16.402;102.848;2023-06-01T06:23:54;12.98;;;11.65;;
19971;SDS011;10147;16.402;102.848;2023-06-01T06:26:27;15.00;;;13.48;;
19971;SDS011;10147;16.402;102.848;2023-06-01T06:28:57;13.93;;;12.50;;
19971;SDS011;10147;16.402;102.848;2023-06-01T06:31:27;14.90;;;12.10;;
19971;SDS011;10147;16.402;102.848;2023-06-01T06:33:57;13.30;;;11.93;;
19971;SDS011;10147;16.402;102.848;2023-06-01T06:36:27;12.85;;;11.55;;
19971;SDS011;10147;16.402;102.848;2023-06-01T06:38:56;12.73;;;11.57;;
19971;SDS011;10147;16.402;102.848;2023-06-01T06:41:26;13.77;;;12.23;;
19971;SDS011;10147;16.402;102.848;2023-06-01T06:43:56;14.13;;;12.48;;
19971;SDS011;10147;16.402;102.848;2023-06-01T06:46:26;13.45;;;12.02;;
19971;SDS011;10147;16.402;102.848;2023-06-01T06:48:56;14.20;;;11.88;;
19971;SDS011;10147;16.402;102.848;2023-06-01T06:51:26;13.30;;;12.02;;
19971;SDS011;10147;16.402;102.848;2023-06-01T06:53:56;14.85;;;11.68;;
19971;SDS011;10147;16.402;102.848;2023-06-01T06:56:27;14.05;;;10.52;;
19971;SDS011;10147;16.402;102.848;2023-06-01T06:58:56;12.63;;;11.40;;
19971;SDS011;10147;16.402;102.848;2023-06-01T07:01:34;13.15;;;11.02;;
19971;SDS011;10147;16.402;102.848;2023-06-01T07:04:07;12.27;;;11.05;;
19971;SDS011;10147;16.402;102.848;2023-06-01T07:06:37;13.18;;;11.90;;
19971;SDS011;10147;16.402;102.848;2023-06-01T07:09:08;13.10;;;11.85;;
19971;SDS011;10147;16.402;102.848;2023-06-01T07:11:39;13.35;;;11.68;;
19971;SDS011;10147;16.402;102.848;2023-06-01T07:14:11;13.27;;;11.90;;
19971;SDS011;10147;16.402;102.848;2023-06-01T07:16:41;13.45;;;12.05;;
19971;SDS011;10147;16.402;102.848;2023-06-01T07:19:11;13.90;;;11.43;;
19971;SDS011;10147;16.402;102.848;2023-06-01T07:21:41;11.25;;;10.18;;
19971;SDS011;10147;16.402;102.848;2023-06-01T07:24:11;13.82;;;11.18;;
19971;SDS011;10147;16.402;102.848;2023-06-01T07:26:41;12.32;;;10.98;;
19971;SDS011;10147;16.402;102.848;2023-06-01T07:29:11;15.68;;;12.20;;
19971;SDS011;10147;16.402;102.848;2023-06-01T07:31:42;14.15;;;10.70;;
19971;SDS011;10147;16.402;102.848;2023-06-01T07:34:12;12.35;;;11.13;;
19971;SDS011;10147;16.402;102.848;2023-06-01T07:36:42;14.63;;;11.40;;
19971;SDS011;10147;16.402;102.848;2023-06-01T07:39:14;12.15;;;10.93;;
19971;SDS011;10147;16.402;102.848;2023-06-01T07:41:44;12.27;;;11.15;;
19971;SDS011;10147;16.402;102.848;2023-06-01T07:44:15;12.45;;;11.25;;
19971;SDS011;10147;16.402;102.848;2023-06-01T07:46:47;12.57;;;11.25;;
19971;SDS011;10147;16.402;102.848;2023-06-01T07:49:16;12.75;;;11.50;;
19971;SDS011;10147;16.402;102.848;2023-06-01T07:51:46;12.23;;;11.10;;
19971;SDS011;10147;16.402;102.848;2023-06-01T07:54:17;12.30;;;11.20;;
19971;SDS011;10147;16.402;102.848;2023-06-01T07:56:47;12.63;;;11.45;;
19971;SDS011;10147;16.402;102.848;2023-06-01T07:59:17;14.48;;;11.55;;
19971;SDS011;10147;16.402;102.848;2023-06-01T08:01:48;12.48;;;11.30;;
19971;SDS011;10147;16.402;102.848;2023-06-01T08:04:20;11.30;;;10.07;;
19971;SDS011;10147;16.402;102.848;2023-06-01T08:06:50;12.05;;;10.38;;
19971;SDS011;10147;16.402;102.848;2023-06-01T08:09:25;11.02;;;9.88;;
19971;SDS011;10147;16.402;102.848;2023-06-01T08:11:55;13.63;;;10.43;;
19971;SDS011;10147;16.402;102.848;2023-06-01T08:14:25;11.48;;;10.38;;
19971;SDS011;10147;16.402;102.848;2023-06-01T08:16:56;12.10;;;10.82;;
19971;SDS011;10147;16.402;102.848;2023-06-01T08:19:26;11.40;;;10.20;;
19971;SDS011;10147;16.402;102.848;2023-06-01T08:21:57;11.30;;;10.07;;
19971;SDS011;10147;16.402;102.848;2023-06-01T08:24:27;11.20;;;10.13;;
19971;SDS011;10147;16.402;102.848;2023-06-01T08:27:01;11.60;;;10.40;;
19971;SDS011;10147;16.402;102.848;2023-06-01T08:29:34;11.05;;;9.90;;
19971;SDS011;10147;16.402;102.848;2023-06-01T08:32:09;12.77;;;9.82;;
19971;SDS011;10147;16.402;102.848;2023-06-01T08:34:40;12.77;;;10.13;;
19971;SDS011;10147;16.402;102.848;2023-06-01T08:37:12;12.02;;;9.68;;
19971;SDS011;10147;16.402;102.848;2023-06-01T08:39:42;11.45;;;10.15;;
19971;SDS011;10147;16.402;102.848;2023-06-01T08:42:15;11.68;;;10.48;;
19971;SDS011;10147;16.402;102.848;2023-06-01T08:44:53;11.38;;;9.98;;
19971;SDS011;10147;16.402;102.848;2023-06-01T08:47:24;12.00;;;10.60;;
19971;SDS011;10147;16.402;102.848;2023-06-01T08:49:55;10.35;;;9.35;;
19971;SDS011;10147;16.402;102.848;2023-06-01T08:52:28;10.70;;;9.70;;
19971;SDS011;10147;16.402;102.848;2023-06-01T08:55:01;12.43;;;10.48;;
19971;SDS011;10147;16.402;102.848;2023-06-01T08:57:32;11.13;;;10.02;;
19971;SDS011;10147;16.402;102.848;2023-06-01T09:00:02;11.35;;;10.25;;
19971;SDS011;10147;16.402;102.848;2023-06-01T09:02:33;11.68;;;10.48;;
19971;SDS011;10147;16.402;102.848;2023-06-01T09:05:03;11.95;;;10.07;;
19971;SDS011;10147;16.402;102.848;2023-06-01T09:07:33;11.30;;;10.20;;
19971;SDS011;10147;16.402;102.848;2023-06-01T09:10:04;11.02;;;10.02;;
19971;SDS011;10147;16.402;102.848;2023-06-01T09:12:37;13.75;;;11.20;;
19971;SDS011;10147;16.402;102.848;2023-06-01T09:15:10;11.93;;;10.65;;
19971;SDS011;10147;16.402;102.848;2023-06-01T09:17:42;13.30;;;10.95;;
19971;SDS011;10147;16.402;102.848;2023-06-01T09:20:27;11.20;;;10.25;;
19971;SDS011;10147;16.402;102.848;2023-06-01T09:22:58;12.27;;;10.15;;
19971;SDS011;10147;16.402;102.848;2023-06-01T09:25:29;11.38;;;10.20;;
19971;SDS011;10147;16.402;102.848;2023-06-01T09:28:02;11.48;;;10.00;;
19971;SDS011;10147;16.402;102.848;2023-06-01T09:30:39;13.43;;;9.98;;
19971;SDS011;10147;16.402;102.848;2023-06-01T09:33:11;11.05;;;9.98;;
19971;SDS011;10147;16.402;102.848;2023-06-01T09:35:44;12.95;;;9.80;;
19971;SDS011;10147;16.402;102.848;2023-06-01T09:38:25;11.02;;;9.63;;
19971;SDS011;10147;16.402;102.848;2023-06-01T09:40:56;11.13;;;9.90;;
19971;SDS011;10147;16.402;102.848;2023-06-01T09:43:33;13.48;;;10.63;;
19971;SDS011;10147;16.402;102.848;2023-06-01T09:46:08;11.50;;;10.10;;
19971;SDS011;10147;16.402;102.848;2023-06-01T09:48:42;13.50;;;10.30;;
19971;SDS011;10147;16.402;102.848;2023-06-01T09:51:20;10.75;;;9.45;;
19971;SDS011;10147;16.402;102.848;2023-06-01T09:54:00;12.43;;;10.35;;
19971;SDS011;10147;16.402;102.848;2023-06-01T09:56:45;13.40;;;10.70;;
19971;SDS011;10147;16.402;102.848;2023-06-01T09:59:16;11.00;;;9.73;;
19971;SDS011;10147;16.402;102.848;2023-06-01T10:01:47;12.57;;;11.20;;
19971;SDS011;10147;16.402;102.848;2023-06-01T10:04:22;13.75;;;10.48;;
19971;SDS011;10147;16.402;102.848;2023-06-01T10:06:55;12.85;;;10.98;;
19971;SDS011;10147;16.402;102.848;2023-06-01T10:09:27;11.27;;;10.13;;
19971;SDS011;10147;16.402;102.848;2023-06-01T10:12:03;16.98;;;11.75;;
19971;SDS011;10147;16.402;102.848;2023-06-01T10:14:35;22.75;;;20.48;;
19971;SDS011;10147;16.402;102.848;2023-06-01T10:17:07;11.55;;;9.95;;
19971;SDS011;10147;16.402;102.848;2023-06-01T10:19:38;12.07;;;10.32;;
19971;SDS011;10147;16.402;102.848;2023-06-01T10:22:08;13.02;;;11.02;;
19971;SDS011;10147;16.402;102.848;2023-06-01T10:24:42;14.00;;;11.95;;
19971;SDS011;10147;16.402;102.848;2023-06-01T10:27:19;12.45;;;11.10;;
19971;SDS011;10147;16.402;102.848;2023-06-01T10:30:11;13.07;;;11.80;;
19971;SDS011;10147;16.402;102.848;2023-06-01T10:32:46;15.43;;;12.20;;
19971;SDS011;10147;16.402;102.848;2023-06-01T10:38:25;12.95;;;10.60;;
19971;SDS011;10147;16.402;102.848;2023-06-01T10:41:24;12.45;;;11.20;;
19971;SDS011;10147;16.402;102.848;2023-06-01T10:43:57;13.75;;;11.93;;
19971;SDS011;10147;16.402;102.848;2023-06-01T10:46:33;16.10;;;12.30;;
19971;SDS011;10147;16.402;102.848;2023-06-01T10:49:12;15.50;;;11.93;;
19971;SDS011;10147;16.402;102.848;2023-06-01T10:51:42;17.33;;;15.38;;
19971;SDS011;10147;16.402;102.848;2023-06-01T11:02:59;15.45;;;11.27;;
19971;SDS011;10147;16.402;102.848;2023-06-01T11:11:23;48.53;;;30.27;;
19971;SDS011;10147;16.402;102.848;2023-06-01T11:14:33;57.25;;;38.92;;
19971;SDS011;10147;16.402;102.848;2023-06-01T11:17:24;55.03;;;34.97;;
19971;SDS011;10147;16.402;102.848;2023-06-01T11:19:58;49.40;;;29.50;;
19971;SDS011;10147;16.402;102.848;2023-06-01T11:22:36;46.60;;;31.15;;
19971;SDS011;10147;16.402;102.848;2023-06-01T11:25:07;35.13;;;24.05;;
19971;SDS011;10147;16.402;102.848;2023-06-01T11:27:43;43.22;;;27.58;;
19971;SDS011;10147;16.402;102.848;2023-06-01T11:30:18;33.88;;;22.38;;
19971;SDS011;10147;16.402;102.848;2023-06-01T11:32:49;27.80;;;16.13;;
19971;SDS011;10147;16.402;102.848;2023-06-01T11:35:24;25.23;;;15.65;;
19971;SDS011;10147;16.402;102.848;2023-06-01T11:37:56;25.25;;;14.18;;
19971;SDS011;10147;16.402;102.848;2023-06-01T11:40:26;17.67;;;12.02;;
19971;SDS011;10147;16.402;102.848;2023-06-01T11:43:03;19.70;;;12.18;;
19971;SDS011;10147;16.402;102.848;2023-06-01T11:45:32;18.90;;;12.60;;
19971;SDS011;10147;16.402;102.848;2023-06-01T11:48:11;15.00;;;12.23;;
19971;SDS011;10147;16.402;102.848;2023-06-01T11:50:45;18.08;;;15.48;;
19971;SDS011;10147;16.402;102.848;2023-06-01T11:53:15;20.50;;;13.25;;
19971;SDS011;10147;16.402;102.848;2023-06-01T11:55:52;15.35;;;13.73;;
19971;SDS011;10147;16.402;102.848;2023-06-01T11:58:27;22.77;;;15.48;;
19971;SDS011;10147;16.402;102.848;2023-06-01T12:00:58;28.73;;;19.98;;
19971;SDS011;10147;16.402;102.848;2023-06-01T12:03:29;50.22;;;34.88;;
19971;SDS011;10147;16.402;102.848;2023-06-01T12:06:00;41.50;;;29.98;;
19971;SDS011;10147;16.402;102.848;2023-06-01T12:08:31;32.90;;;23.38;;
19971;SDS011;10147;16.402;102.848;2023-06-01T12:11:01;26.13;;;18.42;;
19971;SDS011;10147;16.402;102.848;2023-06-01T12:13:31;22.10;;;17.58;;
19971;SDS011;10147;16.402;102.848;2023-06-01T12:16:01;19.50;;;16.10;;
19971;SDS011;10147;16.402;102.848;2023-06-01T12:18:48;16.92;;;14.52;;
19971;SDS011;10147;16.402;102.848;2023-06-01T12:21:18;18.13;;;15.75;;
19971;SDS011;10147;16.402;102.848;2023-06-01T12:23:49;22.98;;;19.13;;
19971;SDS011;10147;16.402;102.848;2023-06-01T12:26:24;25.75;;;20.58;;
19971;SDS011;10147;16.402;102.848;2023-06-01T12:29:05;26.92;;;21.33;;
19971;SDS011;10147;16.402;102.848;2023-06-01T12:31:35;23.30;;;18.67;;
19971;SDS011;10147;16.402;102.848;2023-06-01T12:34:14;19.92;;;17.73;;
19971;SDS011;10147;16.402;102.848;2023-06-01T12:36:45;18.90;;;16.75;;
19971;SDS011;10147;16.402;102.848;2023-06-01T12:39:15;25.65;;;16.17;;
19971;SDS011;10147;16.402;102.848;2023-06-01T12:42:04;18.80;;;16.13;;
19971;SDS011;10147;16.402;102.848;2023-06-01T12:44:35;17.13;;;14.85;;
19971;SDS011;10147;16.402;102.848;2023-06-01T12:47:07;19.77;;;15.50;;
19971;SDS011;10147;16.402;102.848;2023-06-01T12:49:37;20.25;;;15.63;;
19971;SDS011;10147;16.402;102.848;2023-06-01T12:52:08;22.50;;;16.23;;
19971;SDS011;10147;16.402;102.848;2023-06-01T12:54:38;22.27;;;16.70;;
19971;SDS011;10147;16.402;102.848;2023-06-01T12:57:12;23.98;;;16.85;;
19971;SDS011;10147;16.402;102.848;2023-06-01T12:59:42;23.17;;;17.15;;
19971;SDS011;10147;16.402;102.848;2023-06-01T13:02:13;26.98;;;17.67;;
19971;SDS011;10147;16.402;102.848;2023-06-01T13:04:43;25.10;;;17.50;;
19971;SDS011;10147;16.402;102.848;2023-06-01T13:07:13;24.15;;;18.17;;
19971;SDS011;10147;16.402;102.848;2023-06-01T13:09:43;21.42;;;17.17;;
19971;SDS011;10147;16.402;102.848;2023-06-01T13:12:13;21.27;;;18.33;;
19971;SDS011;10147;16.402;102.848;2023-06-01T13:14:43;23.02;;;18.23;;
19971;SDS011;10147;16.402;102.848;2023-06-01T13:17:14;21.88;;;16.90;;
19971;SDS011;10147;16.402;102.848;2023-06-01T13:19:44;22.70;;;20.23;;
19971;SDS011;10147;16.402;102.848;2023-06-01T13:22:14;24.45;;;17.15;;
19971;SDS011;10147;16.402;102.848;2023-06-01T13:24:44;21.10;;;16.67;;
19971;SDS011;10147;16.402;102.848;2023-06-01T13:27:32;22.13;;;15.57;;
19971;SDS011;10147;16.402;102.848;2023-06-01T13:30:02;19.45;;;16.52;;
19971;SDS011;10147;16.402;102.848;2023-06-01T13:32:36;27.02;;;19.52;;
19971;SDS011;10147;16.402;102.848;2023-06-01T13:35:06;28.20;;;20.55;;
19971;SDS011;10147;16.402;102.848;2023-06-01T13:37:37;25.38;;;20.33;;
19971;SDS011;10147;16.402;102.848;2023-06-01T13:40:07;22.20;;;19.23;;
19971;SDS011;10147;16.402;102.848;2023-06-01T13:42:38;24.27;;;19.35;;
19971;SDS011;10147;16.402;102.848;2023-06-01T13:45:08;20.80;;;16.67;;
19971;SDS011;10147;16.402;102.848;2023-06-01T13:47:38;20.30;;;15.88;;
19971;SDS011;10147;16.402;102.848;2023-06-01T13:50:08;19.90;;;16.15;;
19971;SDS011;10147;16.402;102.848;2023-06-01T13:52:39;20.58;;;17.08;;
19971;SDS011;10147;16.402;102.848;2023-06-01T13:55:09;19.48;;;17.13;;
19971;SDS011;10147;16.402;102.848;2023-06-01T13:57:40;19.73;;;17.25;;
19971;SDS011;10147;16.402;102.848;2023-06-01T14:00:12;22.75;;;16.35;;
19971;SDS011;10147;16.402;102.848;2023-06-01T14:02:43;23.83;;;19.75;;
19971;SDS011;10147;16.402;102.848;2023-06-01T14:05:12;22.08;;;19.80;;
19971;SDS011;10147;16.402;102.848;2023-06-01T14:07:52;23.75;;;21.58;;
19971;SDS011;10147;16.402;102.848;2023-06-01T14:10:22;25.48;;;23.10;;
19971;SDS011;10147;16.402;102.848;2023-06-01T14:12:52;22.80;;;16.85;;
19971;SDS011;10147;16.402;102.848;2023-06-01T14:15:21;18.25;;;15.43;;
19971;SDS011;10147;16.402;102.848;2023-06-01T14:17:52;19.30;;;17.00;;
19971;SDS011;10147;16.402;102.848;2023-06-01T14:20:22;18.55;;;16.15;;
19971;SDS011;10147;16.402;102.848;2023-06-01T14:22:52;20.52;;;15.73;;
19971;SDS011;10147;16.402;102.848;2023-06-01T14:25:21;19.02;;;15.15;;
19971;SDS011;10147;16.402;102.848;2023-06-01T14:27:52;18.48;;;15.15;;
19971;SDS011;10147;16.402;102.848;2023-06-01T14:30:22;19.08;;;16.15;;
19971;SDS011;10147;16.402;102.848;2023-06-01T14:32:52;18.90;;;15.43;;
19971;SDS011;10147;16.402;102.848;2023-06-01T14:35:22;20.83;;;15.13;;
19971;SDS011;10147;16.402;102.848;2023-06-01T14:37:55;18.55;;;14.18;;
19971;SDS011;10147;16.402;102.848;2023-06-01T14:40:24;22.27;;;15.68;;
19971;SDS011;10147;16.402;102.848;2023-06-01T14:42:54;17.13;;;15.32;;
19971;SDS011;10147;16.402;102.848;2023-06-01T14:45:24;16.55;;;14.07;;
19971;SDS011;10147;16.402;102.848;2023-06-01T14:47:55;18.65;;;15.55;;
19971;SDS011;10147;16.402;102.848;2023-06-01T14:50:26;21.30;;;15.02;;
19971;SDS011;10147;16.402;102.848;2023-06-01T14:52:56;18.75;;;15.32;;